sensor_id;sensor_type;location;lat;lon;timestamp;P1;durP1;ratioP1;P2;durP2;ratioP2
53261;SDS011;39658;51.090;-1.786;2022-10-16T00:02:14;25.02;;;5.00;;
53261;SDS011;39658;51.090;-1.786;2022-10-16T00:04:41;20.88;;;2.67;;
53261;SDS011;39658;51.090;-1.786;2022-10-16T00:07:08;17.20;;;2.58;;
53261;SDS011;39658;51.090;-1.786;2022-10-16T00:09:34;22.15;;;2.70;;
53261;SDS011;39658;51.090;-1.786;2022-10-16T00:12:01;18.90;;;3.22;;
53261;SDS011;39658;51.090;-1.786;2022-10-16T00:14:30;21.33;;;2.97;;
53261;SDS011;39658;51.090;-1.786;2022-10-16T00:16:57;17.30;;;3.08;;
53261;SDS011;39658;51.090;-1.786;2022-10-16T00:19:24;19.73;;;2.95;;
53261;SDS011;39658;51.090;-1.786;2022-10-16T00:21:51;24.25;;;2.70;;
53261;SDS011;39658;51.090;-1.786;2022-10-16T00:24:17;23.25;;;3.15;;
53261;SDS011;39658;51.090;-1.786;2022-10-16T00:26:44;14.55;;;2.45;;
53261;SDS011;39658;51.090;-1.786;2022-10-16T00:29:11;16.65;;;2.53;;
53261;SDS011;39658;51.090;-1.786;2022-10-16T00:31:39;23.83;;;2.67;;
53261;SDS011;39658;51.090;-1.786;2022-10-16T00:34:06;24.58;;;2.95;;
53261;SDS011;39658;51.090;-1.786;2022-10-16T00:36:33;17.30;;;3.42;;
53261;SDS011;39658;51.090;-1.786;2022-10-16T00:39:00;21.75;;;2.70;;
53261;SDS011;39658;51.090;-1.786;2022-10-16T00:41:27;13.18;;;2.63;;
53261;SDS011;39658;51.090;-1.786;2022-10-16T00:43:55;14.97;;;2.13;;
53261;SDS011;39658;51.090;-1.786;2022-10-16T00:46:23;22.27;;;3.90;;
53261;SDS011;39658;51.090;-1.786;2022-10-16T00:48:55;25.90;;;3.80;;
53261;SDS011;39658;51.090;-1.786;2022-10-16T00:51:26;22.43;;;3.30;;
53261;SDS011;39658;51.090;-1.786;2022-10-16T00:53:57;19.63;;;3.58;;
53261;SDS011;39658;51.090;-1.786;2022-10-16T00:56:25;17.38;;;2.88;;
53261;SDS011;39658;51.090;-1.786;2022-10-16T00:58:52;22.50;;;3.00;;
53261;SDS011;39658;51.090;-1.786;2022-10-16T01:01:19;22.40;;;3.20;;
53261;SDS011;39658;51.090;-1.786;2022-10-16T01:03:46;19.95;;;2.95;;
53261;SDS011;39658;51.090;-1.786;2022-10-16T01:06:19;18.45;;;2.95;;
53261;SDS011;39658;51.090;-1.786;2022-10-16T01:08:57;13.50;;;2.45;;
53261;SDS011;39658;51.090;-1.786;2022-10-16T01:11:34;25.17;;;3.25;;
53261;SDS011;39658;51.090;-1.786;2022-10-16T01:14:11;18.50;;;2.50;;
53261;SDS011;39658;51.090;-1.786;2022-10-16T01:16:48;19.20;;;4.93;;
53261;SDS011;39658;51.090;-1.786;2022-10-16T01:19:20;21.48;;;2.55;;
53261;SDS011;39658;51.090;-1.786;2022-10-16T01:21:54;17.98;;;3.03;;
53261;SDS011;39658;51.090;-1.786;2022-10-16T01:24:26;14.07;;;2.50;;
53261;SDS011;39658;51.090;-1.786;2022-10-16T01:27:06;21.05;;;2.85;;
53261;SDS011;39658;51.090;-1.786;2022-10-16T01:29:37;19.67;;;3.05;;
53261;SDS011;39658;51.090;-1.786;2022-10-16T01:32:10;22.10;;;2.40;;
53261;SDS011;39658;51.090;-1.786;2022-10-16T01:34:42;17.80;;;2.75;;
53261;SDS011;39658;51.090;-1.786;2022-10-16T01:37:15;17.73;;;2.60;;
53261;SDS011;39658;51.090;-1.786;2022-10-16T01:39:47;18.30;;;3.55;;
53261;SDS011;39658;51.090;-1.786;2022-10-16T01:42:18;21.08;;;3.28;;
53261;SDS011;39658;51.090;-1.786;2022-10-16T01:44:48;22.52;;;2.22;;
53261;SDS011;39658;51.090;-1.786;2022-10-16T01:47:17;24.60;;;3.00;;
53261;SDS011;39658;51.090;-1.786;2022-10-16T01:49:48;20.98;;;3.85;;
53261;SDS011;39658;51.090;-1.786;2022-10-16T01:52:17;21.67;;;3.40;;
53261;SDS011;39658;51.090;-1.786;2022-10-16T01:54:49;25.05;;;3.63;;
53261;SDS011;39658;51.090;-1.786;2022-10-16T01:57:21;18.30;;;2.58;;
53261;SDS011;39658;51.090;-1.786;2022-10-16T01:59:52;16.35;;;2.72;;
53261;SDS011;39658;51.090;-1.786;2022-10-16T02:02:22;22.05;;;3.03;;
53261;SDS011;39658;51.090;-1.786;2022-10-16T02:04:55;15.90;;;2.35;;
53261;SDS011;39658;51.090;-1.786;2022-10-16T02:07:25;22.25;;;2.78;;
53261;SDS011;39658;51.090;-1.786;2022-10-16T02:09:52;18.25;;;3.05;;
53261;SDS011;39658;51.090;-1.786;2022-10-16T02:12:21;16.98;;;3.05;;
53261;SDS011;39658;51.090;-1.786;2022-10-16T02:14:52;17.08;;;2.78;;
53261;SDS011;39658;51.090;-1.786;2022-10-16T02:17:19;13.60;;;2.60;;
53261;SDS011;39658;51.090;-1.786;2022-10-16T02:19:47;19.60;;;3.65;;
53261;SDS011;39658;51.090;-1.786;2022-10-16T02:22:16;22.05;;;2.97;;
53261;SDS011;39658;51.090;-1.786;2022-10-16T02:24:49;30.57;;;4.57;;
53261;SDS011;39658;51.090;-1.786;2022-10-16T02:27:22;18.77;;;2.85;;
53261;SDS011;39658;51.090;-1.786;2022-10-16T02:32:24;21.70;;;3.05;;
53261;SDS011;39658;51.090;-1.786;2022-10-16T02:34:55;17.98;;;2.63;;
53261;SDS011;39658;51.090;-1.786;2022-10-16T02:37:23;19.48;;;3.08;;
53261;SDS011;39658;51.090;-1.786;2022-10-16T02:39:51;22.33;;;2.88;;
53261;SDS011;39658;51.090;-1.786;2022-10-16T02:42:19;18.10;;;3.25;;
53261;SDS011;39658;51.090;-1.786;2022-10-16T02:44:47;27.35;;;3.88;;
53261;SDS011;39658;51.090;-1.786;2022-10-16T02:47:14;23.25;;;2.80;;
53261;SDS011;39658;51.090;-1.786;2022-10-16T02:49:41;19.75;;;3.20;;
53261;SDS011;39658;51.090;-1.786;2022-10-16T02:52:07;23.08;;;3.35;;
53261;SDS011;39658;51.090;-1.786;2022-10-16T02:54:34;28.52;;;4.22;;
53261;SDS011;39658;51.090;-1.786;2022-10-16T02:57:01;21.00;;;3.80;;
53261;SDS011;39658;51.090;-1.786;2022-10-16T02:59:28;15.20;;;2.75;;
53261;SDS011;39658;51.090;-1.786;2022-10-16T03:01:56;24.50;;;3.40;;
53261;SDS011;39658;51.090;-1.786;2022-10-16T03:04:23;17.25;;;3.15;;
53261;SDS011;39658;51.090;-1.786;2022-10-16T03:06:50;17.83;;;3.05;;
53261;SDS011;39658;51.090;-1.786;2022-10-16T03:09:17;17.63;;;2.90;;
53261;SDS011;39658;51.090;-1.786;2022-10-16T03:11:43;19.02;;;2.67;;
53261;SDS011;39658;51.090;-1.786;2022-10-16T03:14:10;21.48;;;2.90;;
53261;SDS011;39658;51.090;-1.786;2022-10-16T03:16:37;13.10;;;2.67;;
53261;SDS011;39658;51.090;-1.786;2022-10-16T03:19:05;19.05;;;3.08;;
53261;SDS011;39658;51.090;-1.786;2022-10-16T03:21:32;19.33;;;2.15;;
53261;SDS011;39658;51.090;-1.786;2022-10-16T03:23:59;30.42;;;3.80;;
53261;SDS011;39658;51.090;-1.786;2022-10-16T03:26:25;21.25;;;3.00;;
53261;SDS011;39658;51.090;-1.786;2022-10-16T03:28:52;23.48;;;3.28;;
53261;SDS011;39658;51.090;-1.786;2022-10-16T03:31:19;23.40;;;3.13;;
53261;SDS011;39658;51.090;-1.786;2022-10-16T03:33:46;24.45;;;3.30;;
53261;SDS011;39658;51.090;-1.786;2022-10-16T03:36:14;22.63;;;2.75;;
53261;SDS011;39658;51.090;-1.786;2022-10-16T03:38:41;24.55;;;3.15;;
53261;SDS011;39658;51.090;-1.786;2022-10-16T03:41:08;18.17;;;2.53;;
53261;SDS011;39658;51.090;-1.786;2022-10-16T03:43:35;17.42;;;2.80;;
53261;SDS011;39658;51.090;-1.786;2022-10-16T03:46:02;22.33;;;2.88;;
53261;SDS011;39658;51.090;-1.786;2022-10-16T03:48:29;18.90;;;2.75;;
53261;SDS011;39658;51.090;-1.786;2022-10-16T03:50:57;19.75;;;2.60;;
53261;SDS011;39658;51.090;-1.786;2022-10-16T03:53:25;18.25;;;2.92;;
53261;SDS011;39658;51.090;-1.786;2022-10-16T03:55:52;21.75;;;3.45;;
53261;SDS011;39658;51.090;-1.786;2022-10-16T03:58:19;22.40;;;3.63;;
53261;SDS011;39658;51.090;-1.786;2022-10-16T04:00:46;16.75;;;2.33;;
53261;SDS011;39658;51.090;-1.786;2022-10-16T04:03:13;20.87;;;2.90;;
53261;SDS011;39658;51.090;-1.786;2022-10-16T04:05:40;21.13;;;2.87;;
53261;SDS011;39658;51.090;-1.786;2022-10-16T04:08:07;16.38;;;2.33;;
53261;SDS011;39658;51.090;-1.786;2022-10-16T04:10:35;18.38;;;2.70;;
53261;SDS011;39658;51.090;-1.786;2022-10-16T04:13:02;18.67;;;2.33;;
53261;SDS011;39658;51.090;-1.786;2022-10-16T04:15:29;19.35;;;2.60;;
53261;SDS011;39658;51.090;-1.786;2022-10-16T04:17:56;21.70;;;2.72;;
53261;SDS011;39658;51.090;-1.786;2022-10-16T04:20:22;13.52;;;2.15;;
53261;SDS011;39658;51.090;-1.786;2022-10-16T04:22:49;15.15;;;2.30;;
53261;SDS011;39658;51.090;-1.786;2022-10-16T04:25:16;20.25;;;2.30;;
53261;SDS011;39658;51.090;-1.786;2022-10-16T04:27:44;21.08;;;2.70;;
53261;SDS011;39658;51.090;-1.786;2022-10-16T04:30:11;21.95;;;2.88;;
53261;SDS011;39658;51.090;-1.786;2022-10-16T04:32:38;17.77;;;3.53;;
53261;SDS011;39658;51.090;-1.786;2022-10-16T04:35:05;25.02;;;3.42;;
53261;SDS011;39658;51.090;-1.786;2022-10-16T04:37:32;22.95;;;2.33;;
53261;SDS011;39658;51.090;-1.786;2022-10-16T04:39:59;19.35;;;2.10;;
53261;SDS011;39658;51.090;-1.786;2022-10-16T04:42:26;20.75;;;2.92;;
53261;SDS011;39658;51.090;-1.786;2022-10-16T04:44:54;20.73;;;2.33;;
53261;SDS011;39658;51.090;-1.786;2022-10-16T04:47:21;20.13;;;2.80;;
53261;SDS011;39658;51.090;-1.786;2022-10-16T04:49:48;14.68;;;2.17;;
53261;SDS011;39658;51.090;-1.786;2022-10-16T04:52:15;28.20;;;3.17;;
53261;SDS011;39658;51.090;-1.786;2022-10-16T04:54:42;18.25;;;2.85;;
53261;SDS011;39658;51.090;-1.786;2022-10-16T04:57:10;20.90;;;2.30;;
53261;SDS011;39658;51.090;-1.786;2022-10-16T04:59:37;17.92;;;2.70;;
53261;SDS011;39658;51.090;-1.786;2022-10-16T05:02:05;14.68;;;2.35;;
53261;SDS011;39658;51.090;-1.786;2022-10-16T05:04:32;13.00;;;2.33;;
53261;SDS011;39658;51.090;-1.786;2022-10-16T05:06:59;17.20;;;2.85;;
53261;SDS011;39658;51.090;-1.786;2022-10-16T05:09:25;21.30;;;2.85;;
53261;SDS011;39658;51.090;-1.786;2022-10-16T05:11:52;19.48;;;2.78;;
53261;SDS011;39658;51.090;-1.786;2022-10-16T05:14:19;13.60;;;2.03;;
53261;SDS011;39658;51.090;-1.786;2022-10-16T05:16:46;19.17;;;3.25;;
53261;SDS011;39658;51.090;-1.786;2022-10-16T05:19:14;17.10;;;3.05;;
53261;SDS011;39658;51.090;-1.786;2022-10-16T05:21:41;15.02;;;2.53;;
53261;SDS011;39658;51.090;-1.786;2022-10-16T05:24:08;23.35;;;2.75;;
53261;SDS011;39658;51.090;-1.786;2022-10-16T05:26:35;21.33;;;3.03;;
53261;SDS011;39658;51.090;-1.786;2022-10-16T05:29:02;12.90;;;2.28;;
53261;SDS011;39658;51.090;-1.786;2022-10-16T05:31:29;16.05;;;3.22;;
53261;SDS011;39658;51.090;-1.786;2022-10-16T05:33:57;19.88;;;3.10;;
53261;SDS011;39658;51.090;-1.786;2022-10-16T05:36:27;14.45;;;2.92;;
53261;SDS011;39658;51.090;-1.786;2022-10-16T05:38:54;18.20;;;3.08;;
53261;SDS011;39658;51.090;-1.786;2022-10-16T05:41:21;16.13;;;2.55;;
53261;SDS011;39658;51.090;-1.786;2022-10-16T05:43:50;14.30;;;2.28;;
53261;SDS011;39658;51.090;-1.786;2022-10-16T05:46:17;20.05;;;3.05;;
53261;SDS011;39658;51.090;-1.786;2022-10-16T05:48:44;21.73;;;2.63;;
53261;SDS011;39658;51.090;-1.786;2022-10-16T05:51:12;16.63;;;2.33;;
53261;SDS011;39658;51.090;-1.786;2022-10-16T05:53:41;18.45;;;2.97;;
53261;SDS011;39658;51.090;-1.786;2022-10-16T05:56:09;21.75;;;3.20;;
53261;SDS011;39658;51.090;-1.786;2022-10-16T05:58:37;18.52;;;3.30;;
53261;SDS011;39658;51.090;-1.786;2022-10-16T06:01:06;27.88;;;2.90;;
53261;SDS011;39658;51.090;-1.786;2022-10-16T06:03:35;25.17;;;3.60;;
53261;SDS011;39658;51.090;-1.786;2022-10-16T06:06:07;17.35;;;2.42;;
53261;SDS011;39658;51.090;-1.786;2022-10-16T06:08:34;21.17;;;3.17;;
53261;SDS011;39658;51.090;-1.786;2022-10-16T06:11:03;26.23;;;4.63;;
53261;SDS011;39658;51.090;-1.786;2022-10-16T06:13:31;19.27;;;2.47;;
53261;SDS011;39658;51.090;-1.786;2022-10-16T06:15:58;19.55;;;2.35;;
53261;SDS011;39658;51.090;-1.786;2022-10-16T06:18:27;26.63;;;3.10;;
53261;SDS011;39658;51.090;-1.786;2022-10-16T06:20:54;17.40;;;3.28;;
53261;SDS011;39658;51.090;-1.786;2022-10-16T06:23:22;27.35;;;3.22;;
53261;SDS011;39658;51.090;-1.786;2022-10-16T06:25:49;21.63;;;3.17;;
53261;SDS011;39658;51.090;-1.786;2022-10-16T06:28:17;18.73;;;2.67;;
53261;SDS011;39658;51.090;-1.786;2022-10-16T06:30:44;18.92;;;3.25;;
53261;SDS011;39658;51.090;-1.786;2022-10-16T06:33:11;26.60;;;2.95;;
53261;SDS011;39658;51.090;-1.786;2022-10-16T06:35:38;28.85;;;3.15;;
53261;SDS011;39658;51.090;-1.786;2022-10-16T06:38:05;29.48;;;3.70;;
53261;SDS011;39658;51.090;-1.786;2022-10-16T06:40:32;24.13;;;2.97;;
53261;SDS011;39658;51.090;-1.786;2022-10-16T06:42:59;22.67;;;3.80;;
53261;SDS011;39658;51.090;-1.786;2022-10-16T06:45:27;27.15;;;3.40;;
53261;SDS011;39658;51.090;-1.786;2022-10-16T06:47:54;24.60;;;2.90;;
53261;SDS011;39658;51.090;-1.786;2022-10-16T06:50:21;21.02;;;3.17;;
53261;SDS011;39658;51.090;-1.786;2022-10-16T06:52:48;29.23;;;3.42;;
53261;SDS011;39658;51.090;-1.786;2022-10-16T06:55:15;19.27;;;2.65;;
53261;SDS011;39658;51.090;-1.786;2022-10-16T06:57:43;29.02;;;3.95;;
53261;SDS011;39658;51.090;-1.786;2022-10-16T07:00:10;25.90;;;3.58;;
53261;SDS011;39658;51.090;-1.786;2022-10-16T07:02:38;16.55;;;2.90;;
53261;SDS011;39658;51.090;-1.786;2022-10-16T07:05:05;27.38;;;4.40;;
53261;SDS011;39658;51.090;-1.786;2022-10-16T07:07:33;33.63;;;4.03;;
53261;SDS011;39658;51.090;-1.786;2022-10-16T07:09:59;24.27;;;2.92;;
53261;SDS011;39658;51.090;-1.786;2022-10-16T07:12:26;26.33;;;3.15;;
53261;SDS011;39658;51.090;-1.786;2022-10-16T07:14:53;26.30;;;4.03;;
53261;SDS011;39658;51.090;-1.786;2022-10-16T07:17:21;21.17;;;3.27;;
53261;SDS011;39658;51.090;-1.786;2022-10-16T07:19:49;24.65;;;3.28;;
53261;SDS011;39658;51.090;-1.786;2022-10-16T07:22:18;26.88;;;3.28;;
53261;SDS011;39658;51.090;-1.786;2022-10-16T07:24:45;24.02;;;3.53;;
53261;SDS011;39658;51.090;-1.786;2022-10-16T07:27:11;27.17;;;2.92;;
53261;SDS011;39658;51.090;-1.786;2022-10-16T07:29:38;26.38;;;4.00;;
53261;SDS011;39658;51.090;-1.786;2022-10-16T07:32:05;26.02;;;2.92;;
53261;SDS011;39658;51.090;-1.786;2022-10-16T07:34:32;25.30;;;3.85;;
53261;SDS011;39658;51.090;-1.786;2022-10-16T07:37:00;25.98;;;4.25;;
53261;SDS011;39658;51.090;-1.786;2022-10-16T07:39:27;25.27;;;3.80;;
53261;SDS011;39658;51.090;-1.786;2022-10-16T07:41:54;19.88;;;3.97;;
53261;SDS011;39658;51.090;-1.786;2022-10-16T07:44:21;20.55;;;3.63;;
53261;SDS011;39658;51.090;-1.786;2022-10-16T07:46:48;22.58;;;4.13;;
53261;SDS011;39658;51.090;-1.786;2022-10-16T07:49:14;21.10;;;4.22;;
53261;SDS011;39658;51.090;-1.786;2022-10-16T07:51:41;26.70;;;4.22;;
53261;SDS011;39658;51.090;-1.786;2022-10-16T07:54:09;18.60;;;3.63;;
53261;SDS011;39658;51.090;-1.786;2022-10-16T07:56:36;19.52;;;4.47;;
53261;SDS011;39658;51.090;-1.786;2022-10-16T07:59:03;16.42;;;4.07;;
53261;SDS011;39658;51.090;-1.786;2022-10-16T08:01:30;18.25;;;3.53;;
53261;SDS011;39658;51.090;-1.786;2022-10-16T08:03:57;17.50;;;4.15;;
53261;SDS011;39658;51.090;-1.786;2022-10-16T08:06:24;19.40;;;4.47;;
53261;SDS011;39658;51.090;-1.786;2022-10-16T08:08:50;19.85;;;4.03;;
53261;SDS011;39658;51.090;-1.786;2022-10-16T08:11:19;20.27;;;4.40;;
53261;SDS011;39658;51.090;-1.786;2022-10-16T08:13:46;15.48;;;4.22;;
53261;SDS011;39658;51.090;-1.786;2022-10-16T08:16:13;19.45;;;4.80;;
53261;SDS011;39658;51.090;-1.786;2022-10-16T08:18:40;18.92;;;4.55;;
53261;SDS011;39658;51.090;-1.786;2022-10-16T08:21:08;17.80;;;4.97;;
53261;SDS011;39658;51.090;-1.786;2022-10-16T08:23:40;17.83;;;3.70;;
53261;SDS011;39658;51.090;-1.786;2022-10-16T08:26:07;20.38;;;4.68;;
53261;SDS011;39658;51.090;-1.786;2022-10-16T08:28:36;18.10;;;4.45;;
53261;SDS011;39658;51.090;-1.786;2022-10-16T08:31:07;21.08;;;5.07;;
53261;SDS011;39658;51.090;-1.786;2022-10-16T08:33:34;18.40;;;4.05;;
53261;SDS011;39658;51.090;-1.786;2022-10-16T08:36:02;18.55;;;4.78;;
53261;SDS011;39658;51.090;-1.786;2022-10-16T08:38:29;18.90;;;4.60;;
53261;SDS011;39658;51.090;-1.786;2022-10-16T08:40:58;22.23;;;4.93;;
53261;SDS011;39658;51.090;-1.786;2022-10-16T08:43:41;22.15;;;4.60;;
53261;SDS011;39658;51.090;-1.786;2022-10-16T08:46:33;13.77;;;3.97;;
53261;SDS011;39658;51.090;-1.786;2022-10-16T08:49:10;19.73;;;4.57;;
53261;SDS011;39658;51.090;-1.786;2022-10-16T08:51:39;17.90;;;5.15;;
53261;SDS011;39658;51.090;-1.786;2022-10-16T08:54:11;18.65;;;4.65;;
53261;SDS011;39658;51.090;-1.786;2022-10-16T08:56:53;17.35;;;4.53;;
53261;SDS011;39658;51.090;-1.786;2022-10-16T08:59:22;20.52;;;4.68;;
53261;SDS011;39658;51.090;-1.786;2022-10-16T09:01:50;19.80;;;4.72;;
53261;SDS011;39658;51.090;-1.786;2022-10-16T09:07:14;22.20;;;4.20;;
53261;SDS011;39658;51.090;-1.786;2022-10-16T09:09:54;18.17;;;4.35;;
53261;SDS011;39658;51.090;-1.786;2022-10-16T09:12:29;16.45;;;4.30;;
53261;SDS011;39658;51.090;-1.786;2022-10-16T09:15:10;16.17;;;4.15;;
53261;SDS011;39658;51.090;-1.786;2022-10-16T09:17:45;15.77;;;4.15;;
53261;SDS011;39658;51.090;-1.786;2022-10-16T09:20:20;14.90;;;4.05;;
53261;SDS011;39658;51.090;-1.786;2022-10-16T09:23:00;16.50;;;4.28;;
53261;SDS011;39658;51.090;-1.786;2022-10-16T09:25:39;15.43;;;3.65;;
53261;SDS011;39658;51.090;-1.786;2022-10-16T09:28:07;16.85;;;4.50;;
53261;SDS011;39658;51.090;-1.786;2022-10-16T09:30:37;19.38;;;4.72;;
53261;SDS011;39658;51.090;-1.786;2022-10-16T09:33:04;17.25;;;4.18;;
53261;SDS011;39658;51.090;-1.786;2022-10-16T09:35:33;14.82;;;3.92;;
53261;SDS011;39658;51.090;-1.786;2022-10-16T09:38:03;17.45;;;4.13;;
53261;SDS011;39658;51.090;-1.786;2022-10-16T09:40:31;19.42;;;4.20;;
53261;SDS011;39658;51.090;-1.786;2022-10-16T09:43:06;18.23;;;4.30;;
53261;SDS011;39658;51.090;-1.786;2022-10-16T09:45:54;15.88;;;3.95;;
53261;SDS011;39658;51.090;-1.786;2022-10-16T09:48:22;18.05;;;4.00;;
53261;SDS011;39658;51.090;-1.786;2022-10-16T09:50:56;15.77;;;4.40;;
53261;SDS011;39658;51.090;-1.786;2022-10-16T09:53:24;18.40;;;3.75;;
53261;SDS011;39658;51.090;-1.786;2022-10-16T09:56:03;13.32;;;3.45;;
53261;SDS011;39658;51.090;-1.786;2022-10-16T09:58:31;15.00;;;3.80;;
53261;SDS011;39658;51.090;-1.786;2022-10-16T10:01:00;17.63;;;3.80;;
53261;SDS011;39658;51.090;-1.786;2022-10-16T10:03:34;13.68;;;3.50;;
53261;SDS011;39658;51.090;-1.786;2022-10-16T10:06:05;23.92;;;4.57;;
53261;SDS011;39658;51.090;-1.786;2022-10-16T10:08:52;19.80;;;4.38;;
53261;SDS011;39658;51.090;-1.786;2022-10-16T10:14:19;14.07;;;4.13;;
53261;SDS011;39658;51.090;-1.786;2022-10-16T10:17:06;17.75;;;4.05;;
53261;SDS011;39658;51.090;-1.786;2022-10-16T10:19:37;16.15;;;4.10;;
53261;SDS011;39658;51.090;-1.786;2022-10-16T10:22:13;16.35;;;4.38;;
53261;SDS011;39658;51.090;-1.786;2022-10-16T10:24:43;18.50;;;4.07;;
53261;SDS011;39658;51.090;-1.786;2022-10-16T10:27:11;14.30;;;4.25;;
53261;SDS011;39658;51.090;-1.786;2022-10-16T10:29:46;15.63;;;4.67;;
53261;SDS011;39658;51.090;-1.786;2022-10-16T10:32:24;20.23;;;4.28;;
53261;SDS011;39658;51.090;-1.786;2022-10-16T10:35:06;16.48;;;4.28;;
53261;SDS011;39658;51.090;-1.786;2022-10-16T10:37:46;19.27;;;4.97;;
53261;SDS011;39658;51.090;-1.786;2022-10-16T10:40:23;20.38;;;4.47;;
53261;SDS011;39658;51.090;-1.786;2022-10-16T10:42:59;20.55;;;4.97;;
53261;SDS011;39658;51.090;-1.786;2022-10-16T10:45:37;19.80;;;5.03;;
53261;SDS011;39658;51.090;-1.786;2022-10-16T10:48:19;16.95;;;4.43;;
53261;SDS011;39658;51.090;-1.786;2022-10-16T10:51:01;17.80;;;4.00;;
53261;SDS011;39658;51.090;-1.786;2022-10-16T10:53:35;17.65;;;4.15;;
53261;SDS011;39658;51.090;-1.786;2022-10-16T10:56:14;20.50;;;4.20;;
53261;SDS011;39658;51.090;-1.786;2022-10-16T10:58:53;14.77;;;4.03;;
53261;SDS011;39658;51.090;-1.786;2022-10-16T11:01:31;15.95;;;4.40;;
53261;SDS011;39658;51.090;-1.786;2022-10-16T11:04:15;15.57;;;4.15;;
53261;SDS011;39658;51.090;-1.786;2022-10-16T11:07:01;18.73;;;5.20;;
53261;SDS011;39658;51.090;-1.786;2022-10-16T11:09:31;16.30;;;4.30;;
53261;SDS011;39658;51.090;-1.786;2022-10-16T11:12:05;18.25;;;4.32;;
53261;SDS011;39658;51.090;-1.786;2022-10-16T11:14:38;17.30;;;4.50;;
53261;SDS011;39658;51.090;-1.786;2022-10-16T11:19:41;17.42;;;4.70;;
53261;SDS011;39658;51.090;-1.786;2022-10-16T11:22:14;16.38;;;3.97;;
53261;SDS011;39658;51.090;-1.786;2022-10-16T11:24:46;19.88;;;4.32;;
53261;SDS011;39658;51.090;-1.786;2022-10-16T11:27:19;17.40;;;4.93;;
53261;SDS011;39658;51.090;-1.786;2022-10-16T11:29:53;22.13;;;4.78;;
53261;SDS011;39658;51.090;-1.786;2022-10-16T11:32:28;15.43;;;3.60;;
53261;SDS011;39658;51.090;-1.786;2022-10-16T11:35:02;20.37;;;4.53;;
53261;SDS011;39658;51.090;-1.786;2022-10-16T11:37:38;21.70;;;4.18;;
53261;SDS011;39658;51.090;-1.786;2022-10-16T11:40:19;20.35;;;4.95;;
53261;SDS011;39658;51.090;-1.786;2022-10-16T11:42:52;19.92;;;4.85;;
53261;SDS011;39658;51.090;-1.786;2022-10-16T11:45:26;14.32;;;3.80;;
53261;SDS011;39658;51.090;-1.786;2022-10-16T11:47:58;16.48;;;4.20;;
53261;SDS011;39658;51.090;-1.786;2022-10-16T11:53:01;15.32;;;3.83;;
53261;SDS011;39658;51.090;-1.786;2022-10-16T11:55:36;20.05;;;4.53;;
53261;SDS011;39658;51.090;-1.786;2022-10-16T11:58:05;15.65;;;4.25;;
53261;SDS011;39658;51.090;-1.786;2022-10-16T12:00:41;16.52;;;4.15;;
53261;SDS011;39658;51.090;-1.786;2022-10-16T12:03:16;16.38;;;4.78;;
53261;SDS011;39658;51.090;-1.786;2022-10-16T12:05:55;17.13;;;4.13;;
53261;SDS011;39658;51.090;-1.786;2022-10-16T12:08:31;16.13;;;4.25;;
53261;SDS011;39658;51.090;-1.786;2022-10-16T12:11:06;16.23;;;4.68;;
53261;SDS011;39658;51.090;-1.786;2022-10-16T12:13:35;20.13;;;4.85;;
53261;SDS011;39658;51.090;-1.786;2022-10-16T12:16:06;20.75;;;5.35;;
53261;SDS011;39658;51.090;-1.786;2022-10-16T12:18:47;17.55;;;4.32;;
53261;SDS011;39658;51.090;-1.786;2022-10-16T12:21:16;18.08;;;4.82;;
53261;SDS011;39658;51.090;-1.786;2022-10-16T12:23:47;17.48;;;3.95;;
53261;SDS011;39658;51.090;-1.786;2022-10-16T12:26:23;18.45;;;4.20;;
53261;SDS011;39658;51.090;-1.786;2022-10-16T12:28:51;20.25;;;4.72;;
53261;SDS011;39658;51.090;-1.786;2022-10-16T12:31:19;19.75;;;5.00;;
53261;SDS011;39658;51.090;-1.786;2022-10-16T12:33:53;16.95;;;3.55;;
53261;SDS011;39658;51.090;-1.786;2022-10-16T12:36:29;16.85;;;4.28;;
53261;SDS011;39658;51.090;-1.786;2022-10-16T12:38:57;19.88;;;5.10;;
53261;SDS011;39658;51.090;-1.786;2022-10-16T12:41:26;21.33;;;4.55;;
53261;SDS011;39658;51.090;-1.786;2022-10-16T12:43:54;19.17;;;3.97;;
53261;SDS011;39658;51.090;-1.786;2022-10-16T12:46:23;16.42;;;3.80;;
53261;SDS011;39658;51.090;-1.786;2022-10-16T12:49:17;19.67;;;4.57;;
53261;SDS011;39658;51.090;-1.786;2022-10-16T12:51:56;16.90;;;4.60;;
53261;SDS011;39658;51.090;-1.786;2022-10-16T12:54:25;20.33;;;5.03;;
53261;SDS011;39658;51.090;-1.786;2022-10-16T12:57:02;17.48;;;3.95;;
53261;SDS011;39658;51.090;-1.786;2022-10-16T12:59:40;18.42;;;4.32;;
53261;SDS011;39658;51.090;-1.786;2022-10-16T13:02:32;23.02;;;6.00;;
53261;SDS011;39658;51.090;-1.786;2022-10-16T13:05:30;17.58;;;4.07;;
53261;SDS011;39658;51.090;-1.786;2022-10-16T13:08:10;23.33;;;4.07;;
53261;SDS011;39658;51.090;-1.786;2022-10-16T13:10:51;21.42;;;4.63;;
53261;SDS011;39658;51.090;-1.786;2022-10-16T13:16:22;19.98;;;3.58;;
53261;SDS011;39658;51.090;-1.786;2022-10-16T13:18:59;16.25;;;3.33;;
53261;SDS011;39658;51.090;-1.786;2022-10-16T13:21:39;16.75;;;3.58;;
53261;SDS011;39658;51.090;-1.786;2022-10-16T13:24:18;21.38;;;3.65;;
53261;SDS011;39658;51.090;-1.786;2022-10-16T13:26:55;14.90;;;3.30;;
53261;SDS011;39658;51.090;-1.786;2022-10-16T13:29:29;15.55;;;3.40;;
53261;SDS011;39658;51.090;-1.786;2022-10-16T13:31:57;19.25;;;3.95;;
53261;SDS011;39658;51.090;-1.786;2022-10-16T13:34:25;15.48;;;4.07;;
53261;SDS011;39658;51.090;-1.786;2022-10-16T13:36:53;20.58;;;4.60;;
53261;SDS011;39658;51.090;-1.786;2022-10-16T13:39:23;13.30;;;3.30;;
53261;SDS011;39658;51.090;-1.786;2022-10-16T13:41:58;19.35;;;4.70;;
53261;SDS011;39658;51.090;-1.786;2022-10-16T13:44:28;13.98;;;3.72;;
53261;SDS011;39658;51.090;-1.786;2022-10-16T13:47:02;19.58;;;3.88;;
53261;SDS011;39658;51.090;-1.786;2022-10-16T13:49:29;19.70;;;4.20;;
53261;SDS011;39658;51.090;-1.786;2022-10-16T13:51:56;24.02;;;3.97;;
53261;SDS011;39658;51.090;-1.786;2022-10-16T13:54:26;18.10;;;3.58;;
53261;SDS011;39658;51.090;-1.786;2022-10-16T13:56:54;16.40;;;4.00;;
53261;SDS011;39658;51.090;-1.786;2022-10-16T13:59:25;16.75;;;3.95;;
53261;SDS011;39658;51.090;-1.786;2022-10-16T14:01:53;16.73;;;3.67;;
53261;SDS011;39658;51.090;-1.786;2022-10-16T14:04:23;16.83;;;3.17;;
53261;SDS011;39658;51.090;-1.786;2022-10-16T14:06:51;17.80;;;4.03;;
53261;SDS011;39658;51.090;-1.786;2022-10-16T14:09:22;17.13;;;3.95;;
53261;SDS011;39658;51.090;-1.786;2022-10-16T14:11:53;18.02;;;3.78;;
53261;SDS011;39658;51.090;-1.786;2022-10-16T14:14:22;18.85;;;4.40;;
53261;SDS011;39658;51.090;-1.786;2022-10-16T14:16:49;17.85;;;4.25;;
53261;SDS011;39658;51.090;-1.786;2022-10-16T14:19:18;19.92;;;4.05;;
53261;SDS011;39658;51.090;-1.786;2022-10-16T14:21:48;18.98;;;3.75;;
53261;SDS011;39658;51.090;-1.786;2022-10-16T14:24:22;19.73;;;4.20;;
53261;SDS011;39658;51.090;-1.786;2022-10-16T14:26:54;13.98;;;3.03;;
53261;SDS011;39658;51.090;-1.786;2022-10-16T14:29:22;19.85;;;4.18;;
53261;SDS011;39658;51.090;-1.786;2022-10-16T14:31:56;16.10;;;3.50;;
53261;SDS011;39658;51.090;-1.786;2022-10-16T14:34:25;18.17;;;3.45;;
53261;SDS011;39658;51.090;-1.786;2022-10-16T14:36:55;21.13;;;3.83;;
53261;SDS011;39658;51.090;-1.786;2022-10-16T14:39:23;19.98;;;4.25;;
53261;SDS011;39658;51.090;-1.786;2022-10-16T14:41:52;20.75;;;4.43;;
53261;SDS011;39658;51.090;-1.786;2022-10-16T14:44:26;21.15;;;4.22;;
53261;SDS011;39658;51.090;-1.786;2022-10-16T14:46:55;20.42;;;4.13;;
53261;SDS011;39658;51.090;-1.786;2022-10-16T14:49:24;18.02;;;3.97;;
53261;SDS011;39658;51.090;-1.786;2022-10-16T14:51:53;17.30;;;3.83;;
53261;SDS011;39658;51.090;-1.786;2022-10-16T14:54:20;19.90;;;4.13;;
53261;SDS011;39658;51.090;-1.786;2022-10-16T14:56:47;21.67;;;4.43;;